EEST,Max TemperatureF,Mean TemperatureF,Min TemperatureF,Max Dew PointF,MeanDew PointF,Min DewpointF,Max Humidity, Mean Humidity, Min Humidity, Max Sea Level PressureIn, Mean Sea Level PressureIn, Min Sea Level PressureIn, Max VisibilityMiles, Mean VisibilityMiles, Min VisibilityMiles, Max Wind SpeedMPH, Mean Wind SpeedMPH, Max Gust SpeedMPH,PrecipitationIn, CloudCover, Events, WindDirDegrees
2012-9-1,82,74,66,61,58,55,73,55,31,30.12,30.06,30.04,6,6,6,18,10,29,0.00,3,,42
2012-9-2,81,76,71,61,59,55,64,56,44,30.15,30.13,30.09,6,6,6,21,14,25,0.00,3,,43
2012-9-3,81,74,68,61,57,55,64,55,37,30.12,30.06,30.01,6,6,6,20,12,30,0.00,2,,45
2012-9-4,83,76,69,64,61,59,73,60,35,30.01,29.96,29.92,6,6,6,18,11,,0.00,2,,40
2012-9-5,85,79,73,64,62,60,73,61,43,29.98,29.94,29.92,6,6,6,22,11,28,0.00,3,,47
2012-9-6,82,77,72,66,64,61,78,66,48,29.92,29.88,29.86,6,6,6,13,9,,0.00,3,,34
2012-9-7,82,76,70,67,63,56,88,65,32,30.04,29.97,29.89,6,6,6,23,11,33,0.00,3,,18
2012-9-8,78,74,69,61,52,46,69,48,26,30.06,30.03,30.01,6,6,6,21,14,31,0.00,2,,45
2012-9-9,81,74,68,59,56,54,68,54,34,30.06,30.03,30.01,6,6,6,16,9,23,0.00,1,,51
2012-9-10,81,74,68,57,55,48,60,51,28,30.15,30.11,30.06,6,6,6,22,11,20,0.00,3,,47
2012-9-11,80,74,68,59,54,50,68,53,30,30.12,30.05,30.01,6,6,6,23,13,36,0.00,2,,49
2012-9-12,79,72,65,60,56,52,68,56,38,29.98,29.89,29.83,6,6,6,17,9,,0.00,3,,33
2012-9-13,76,70,63,61,58,50,73,61,41,29.86,29.83,29.80,6,6,6,9,5,,0.00,1,,172
2012-9-14,86,74,63,66,56,43,94,56,19,29.98,29.92,29.86,6,5,4,7,3,,0.00,,,132
2012-9-15,88,78,67,68,58,48,94,52,18,29.92,29.86,29.80,6,6,6,12,4,,0.00,3,,261
2012-9-16,89,82,74,64,57,48,69,46,25,29.86,29.82,29.77,6,6,6,25,12,37,0.00,3,Thunderstorm,22
2012-9-17,81,76,70,70,66,61,94,70,47,29.92,29.87,29.80,6,6,2,21,13,,0.03,5,Rain-Thunderstorm,14
2012-9-18,77,74,70,70,67,63,100,84,65,29.95,29.92,29.89,6,6,4,20,12,32,0.08,6,Rain-Thunderstorm,15
2012-9-19,79,74,68,68,63,54,88,70,47,29.92,29.89,29.86,6,6,2,12,9,,0.08,5,Rain-Thunderstorm,24
2012-9-20,75,69,63,64,62,59,100,76,54,29.92,29.89,29.86,6,6,6,9,5,,0.00,2,,256
2012-9-21,66,62,59,70,56,45,100,75,44,30.06,29.96,29.86,6,6,2,22,8,,0.20,6,Rain-Thunderstorm,319
2012-9-22,68,62,55,48,45,41,67,51,36,30.09,30.06,30.04,6,6,6,12,7,,0.00,3,,269
2012-9-23,78,67,56,56,50,46,77,55,29,30.14,30.08,30.06,12,8,6,9,4,,0.00,,,28
2012-9-24,76,66,56,61,55,48,78,62,40,30.04,29.98,29.89,6,6,6,9,5,,0.00,,,256
2012-9-25,79,70,60,66,59,46,100,67,29,29.92,29.88,29.86,12,8,6,8,3,,0.00,,,212
2012-9-26,83,74,64,68,62,52,94,68,37,30.01,29.94,29.89,6,6,6,13,4,,0.00,,,223
2012-9-27,86,77,68,68,62,54,100,68,26,30.06,30.03,30.01,6,4,2,16,12,,0.00,,,12
2012-9-28,84,76,69,68,63,54,94,69,31,30.09,30.06,30.04,6,6,6,16,12,24,0.00,,,30
2012-9-29,81,74,68,66,62,59,94,69,38,30.15,30.09,30.06,12,6,6,16,9,,0.00,2,,37
2012-9-30,83,76,69,64,62,61,83,66,41,30.12,30.09,30.06,6,6,6,17,10,,0.00,4,,36